createdAt,value
2023-02-09T00:03:42.030Z,69.69
2023-02-09T00:07:42.332Z,69.77
2023-02-09T00:11:57.993Z,70.08
2023-02-09T00:16:02.043Z,70.70
2023-02-09T00:20:02.294Z,70.48
2023-02-09T00:24:03.058Z,70.34
2023-02-09T00:28:05.943Z,70.52
2023-02-09T00:32:06.251Z,69.44
2023-02-09T00:36:09.234Z,68.93
2023-02-09T00:40:10.847Z,69.50
2023-02-09T00:44:14.727Z,69.57
2023-02-09T00:48:14.809Z,68.79
2023-02-09T00:52:14.854Z,69.01
2023-02-09T00:56:14.961Z,68.91
2023-02-09T01:00:20.568Z,68.54
2023-02-09T01:04:20.808Z,69.35
2023-02-09T01:08:20.884Z,67.96
2023-02-09T01:12:20.964Z,67.88
2023-02-09T01:16:24.158Z,68.07
2023-02-09T01:20:24.371Z,68.11
2023-02-09T01:24:24.578Z,68.64
2023-02-09T01:28:24.702Z,69.42
2023-02-09T01:32:27.602Z,70.15
2023-02-09T01:36:29.188Z,70.13
2023-02-09T01:40:29.265Z,69.93
2023-02-09T01:45:20.904Z,69.63
2023-02-09T01:49:29.062Z,69.46
2023-02-09T01:53:30.997Z,70.42
2023-02-09T01:57:35.578Z,70.71
2023-02-09T02:01:35.879Z,70.08
2023-02-09T02:05:45.337Z,69.91
2023-02-09T02:09:46.029Z,68.89
2023-02-09T02:13:46.311Z,69.86
2023-02-09T02:18:10.897Z,69.78
2023-02-09T02:22:54.200Z,70.24
2023-02-09T02:27:02.217Z,69.85
2023-02-09T02:31:44.914Z,70.30
2023-02-09T02:35:56.925Z,68.87
2023-02-09T02:40:18.736Z,70.07
2023-02-09T02:44:22.211Z,68.95
2023-02-09T02:48:35.289Z,69.57
2023-02-09T02:52:38.297Z,70.23
2023-02-09T02:56:44.983Z,69.32
2023-02-09T03:00:52.925Z,68.86
2023-02-09T03:04:58.305Z,68.94
2023-02-09T03:09:01.660Z,68.21
2023-02-09T03:13:17.862Z,68.68
2023-02-09T03:17:32.969Z,69.14
2023-02-09T03:21:49.258Z,68.50
2023-02-09T03:25:59.083Z,69.52
2023-02-09T03:30:04.454Z,69.00
2023-02-09T03:34:05.264Z,69.48
2023-02-09T03:38:07.785Z,69.16
2023-02-09T03:42:10.693Z,69.16
2023-02-09T03:46:10.776Z,68.72
2023-02-09T03:50:11.836Z,67.60
2023-02-09T03:54:11.866Z,67.87
2023-02-09T03:58:14.534Z,67.44
2023-02-09T04:02:15.959Z,67.42
2023-02-09T04:06:16.026Z,68.30
2023-02-09T04:10:16.082Z,68.13
2023-02-09T04:14:19.607Z,67.65
2023-02-09T04:18:19.758Z,68.23
2023-02-09T04:22:19.942Z,68.80
2023-02-09T04:26:20.727Z,69.59
2023-02-09T04:30:23.785Z,68.13
2023-02-09T04:34:24.674Z,68.24
2023-02-09T04:38:26.039Z,69.07
2023-02-09T04:42:26.342Z,68.72
2023-02-09T04:46:28.971Z,68.93
2023-02-09T04:50:28.969Z,69.29
2023-02-09T04:54:29.226Z,69.00
2023-02-09T04:58:42.294Z,68.80
2023-02-09T05:02:44.958Z,68.91
2023-02-09T05:06:45.029Z,67.82
2023-02-09T05:10:45.215Z,67.52
2023-02-09T05:14:45.406Z,67.69
2023-02-09T05:18:50.489Z,67.50
2023-02-09T05:22:50.653Z,67.06
2023-02-09T05:26:50.681Z,67.31
2023-02-09T05:30:53.903Z,67.60
2023-02-09T05:34:56.635Z,69.02
2023-02-09T05:38:56.672Z,68.40
2023-02-09T05:42:57.514Z,67.98
2023-02-09T05:46:57.585Z,68.50
2023-02-09T05:51:00.275Z,67.57
2023-02-09T05:55:00.376Z,67.47
2023-02-09T05:59:00.432Z,67.58
2023-02-09T06:03:00.535Z,72.68
2023-02-09T06:07:03.585Z,73.31
2023-02-09T06:11:06.153Z,74.86
2023-02-09T06:15:07.057Z,71.44
2023-02-09T06:19:07.626Z,71.80
2023-02-09T06:23:10.374Z,70.32
2023-02-09T06:27:10.511Z,69.24
2023-02-09T06:31:11.446Z,68.37
2023-02-09T06:35:12.167Z,68.36
2023-02-09T06:39:14.994Z,67.76
2023-02-09T06:43:15.026Z,67.51
2023-02-09T06:47:15.139Z,70.70
2023-02-09T06:51:18.909Z,68.13
2023-02-09T06:55:22.064Z,68.23
2023-02-09T06:59:22.596Z,67.98
2023-02-09T07:03:22.606Z,67.73
2023-02-09T07:07:24.393Z,67.96
2023-02-09T07:11:28.145Z,67.96
2023-02-09T07:15:28.290Z,68.05
2023-02-09T07:19:28.358Z,67.67
2023-02-09T07:23:29.377Z,67.47
2023-02-09T07:27:32.037Z,66.85
2023-02-09T07:31:32.407Z,66.48
2023-02-09T07:35:32.595Z,65.14
2023-02-09T07:39:33.310Z,64.34
2023-02-09T07:43:37.616Z,64.63
2023-02-09T07:47:40.036Z,64.43
2023-02-09T07:51:40.270Z,63.71
2023-02-09T07:55:42.598Z,63.01
2023-02-09T07:59:45.312Z,62.06
2023-02-09T08:03:48.642Z,61.45
2023-02-09T08:07:49.030Z,60.34
2023-02-09T08:11:56.213Z,62.53
2023-02-09T08:16:05.847Z,62.16
2023-02-09T08:20:11.670Z,62.63
2023-02-09T08:24:14.310Z,61.35
2023-02-09T08:28:17.748Z,60.19
2023-02-09T08:32:24.994Z,57.92
2023-02-09T08:36:27.622Z,57.18
2023-02-09T08:40:27.838Z,55.89
2023-02-09T08:44:29.258Z,54.82
2023-02-09T08:48:37.455Z,52.48
2023-02-09T08:52:38.326Z,51.86
2023-02-09T08:56:39.429Z,51.47
2023-02-09T09:00:39.732Z,51.70
2023-02-09T09:04:42.524Z,51.51
2023-02-09T09:08:43.761Z,50.52
2023-02-09T09:12:45.018Z,50.56
2023-02-09T09:16:45.373Z,50.97
2023-02-09T09:20:48.276Z,50.93
2023-02-09T09:24:48.497Z,50.64
2023-02-09T09:53:19.941Z,52.89
2023-02-09T09:57:27.796Z,51.14
2023-02-09T10:01:31.133Z,50.43
2023-02-09T10:05:40.790Z,48.97
2023-02-09T10:09:55.151Z,48.63
2023-02-09T10:13:58.198Z,47.56
2023-02-09T10:18:02.057Z,47.21
2023-02-09T10:22:03.177Z,46.98
2023-02-09T10:26:27.779Z,45.83
2023-02-09T10:30:32.558Z,44.15
2023-02-09T10:34:44.378Z,43.34
2023-02-09T10:38:49.735Z,44.09
2023-02-09T10:43:12.857Z,42.95
2023-02-09T10:47:33.622Z,42.78
2023-02-09T10:51:37.943Z,42.25
2023-02-09T10:55:42.740Z,42.46
2023-02-09T10:59:44.882Z,41.38
2023-02-09T11:04:08.784Z,40.45
2023-02-09T11:08:27.583Z,40.30
2023-02-09T11:12:29.052Z,41.16
2023-02-09T11:17:19.046Z,40.01
2023-02-09T11:21:36.618Z,39.61
2023-02-09T11:25:47.614Z,38.09
2023-02-09T11:30:02.248Z,36.84
2023-02-09T11:34:15.469Z,37.23
2023-02-09T11:38:54.824Z,38.77
2023-02-09T11:43:39.998Z,38.95
2023-02-09T11:48:33.443Z,38.23
2023-02-09T12:03:09.731Z,34.99
2023-02-09T12:07:59.549Z,34.41
2023-02-09T12:12:31.890Z,32.63
2023-02-09T12:17:36.054Z,33.09
2023-02-09T12:44:58.630Z,29.41
2023-02-09T12:49:23.061Z,28.27
2023-02-09T12:53:50.224Z,29.71
2023-02-09T12:57:55.072Z,29.72
2023-02-09T13:02:32.511Z,29.47
2023-02-09T13:06:43.521Z,29.04
2023-02-09T13:10:52.385Z,28.60
2023-02-09T13:14:54.437Z,28.60
2023-02-09T13:19:16.837Z,28.12
2023-02-09T13:23:35.299Z,29.19
2023-02-09T13:27:36.294Z,28.92
2023-02-09T13:31:42.769Z,29.84
2023-02-09T13:36:16.288Z,28.82
2023-02-09T13:40:29.501Z,30.09
2023-02-09T13:44:32.926Z,30.54
2023-02-09T13:48:37.751Z,30.75
2023-02-09T13:52:40.955Z,32.43
2023-02-09T13:56:44.248Z,33.08
2023-02-09T14:00:50.282Z,33.88
2023-02-09T14:04:57.201Z,33.67
2023-02-09T14:09:05.196Z,32.39
2023-02-09T14:13:10.200Z,33.57
2023-02-09T14:17:24.979Z,33.79
2023-02-09T14:21:34.529Z,33.68
2023-02-09T14:26:07.454Z,34.35
2023-02-09T14:30:18.314Z,34.08
2023-02-09T14:35:26.328Z,32.95
2023-02-09T14:39:28.182Z,34.15
2023-02-09T14:43:31.690Z,33.65
2023-02-09T14:47:44.377Z,32.80
2023-02-09T14:51:46.037Z,31.99
2023-02-09T14:55:46.744Z,31.84
2023-02-09T14:59:50.570Z,31.70
2023-02-09T15:03:51.260Z,31.48
2023-02-09T15:07:57.285Z,31.28
2023-02-09T15:12:10.040Z,30.92
2023-02-09T15:16:14.794Z,31.22
2023-02-09T15:20:18.689Z,31.94
2023-02-09T15:24:21.580Z,34.07
2023-02-09T15:28:32.464Z,35.66
2023-02-09T15:32:35.500Z,35.70
2023-02-09T15:36:38.033Z,35.58
2023-02-09T15:41:00.238Z,35.94
2023-02-09T15:45:13.608Z,37.36
2023-02-09T15:49:17.087Z,37.35
2023-02-09T15:53:21.545Z,37.51
2023-02-09T15:57:22.458Z,38.09
2023-02-09T16:01:23.594Z,38.71
2023-02-09T16:05:31.573Z,40.20
2023-02-09T16:09:33.428Z,41.09
2023-02-09T16:13:33.766Z,42.12
2023-02-09T16:17:34.366Z,42.65
2023-02-09T16:21:37.751Z,44.34
2023-02-09T16:25:38.303Z,45.15
2023-02-09T16:29:39.060Z,45.91
2023-02-09T16:33:41.317Z,46.91
2023-02-09T16:37:46.585Z,47.37
2023-02-09T16:41:51.022Z,48.38
2023-02-09T16:46:03.291Z,48.46
2023-02-09T16:50:22.814Z,50.21
2023-02-09T16:54:26.248Z,50.06
2023-02-09T16:58:27.048Z,50.86
2023-02-09T17:02:40.170Z,51.49
2023-02-09T17:06:41.060Z,52.91
2023-02-09T17:10:44.688Z,53.73
2023-02-09T17:14:46.272Z,54.46
2023-02-09T17:18:49.586Z,54.90
2023-02-09T17:22:53.582Z,55.94
2023-02-09T17:26:56.958Z,56.30
2023-02-09T17:31:01.984Z,57.46
2023-02-09T17:35:02.968Z,57.76
2023-02-09T17:39:04.625Z,58.06
2023-02-09T17:43:08.808Z,59.11
2023-02-09T17:47:09.796Z,59.15
2023-02-09T17:51:17.444Z,59.92
2023-02-09T17:55:25.721Z,59.47
2023-02-09T17:59:29.902Z,60.24
2023-02-09T18:03:30.359Z,60.83
2023-02-09T18:07:31.161Z,60.82
2023-02-09T18:12:01.803Z,61.71
2023-02-09T18:16:06.099Z,60.88
2023-02-09T18:20:08.900Z,60.92
2023-02-09T18:24:10.787Z,61.35
2023-02-09T18:28:11.896Z,61.46
2023-02-09T18:32:21.214Z,62.05
2023-02-09T18:36:22.151Z,62.18
2023-02-09T18:40:23.266Z,62.53
2023-02-09T18:44:29.387Z,62.58
2023-02-09T18:48:32.836Z,62.91
2023-02-09T18:52:34.669Z,62.68
2023-02-09T18:56:35.032Z,62.71
2023-02-09T19:00:36.492Z,62.76
2023-02-09T19:04:42.760Z,63.35
2023-02-09T19:08:43.477Z,63.45
2023-02-09T19:12:45.670Z,63.98
2023-02-09T19:16:46.619Z,63.87
2023-02-09T19:20:49.921Z,65.17
2023-02-09T19:24:53.310Z,65.00
2023-02-09T19:28:54.150Z,66.04
2023-02-09T19:32:55.247Z,65.81
2023-02-09T19:36:58.238Z,65.98
2023-02-09T19:41:10.187Z,66.01
2023-02-09T19:45:12.371Z,66.22
2023-02-09T19:49:13.252Z,66.55
2023-02-09T19:53:16.845Z,66.37
2023-02-09T19:57:18.351Z,65.91
2023-02-09T20:01:19.695Z,66.33
2023-02-09T20:05:20.920Z,66.29
2023-02-09T20:09:24.199Z,66.24
2023-02-09T20:13:25.319Z,66.40
2023-02-09T20:17:27.069Z,66.63
2023-02-09T20:21:28.780Z,67.12
2023-02-09T20:25:32.362Z,67.14
2023-02-09T20:29:32.653Z,67.40
2023-02-09T20:33:33.126Z,67.28
2023-02-09T20:37:34.389Z,67.61
2023-02-09T20:41:38.129Z,67.89
2023-02-09T20:45:51.006Z,68.38
2023-02-09T20:49:51.728Z,68.97
2023-02-09T20:53:51.999Z,69.70
2023-02-09T20:57:55.471Z,69.35
2023-02-09T21:01:55.950Z,69.56
2023-02-09T21:05:57.479Z,69.25
2023-02-09T21:09:58.178Z,69.29
2023-02-09T21:14:01.665Z,69.80
2023-02-09T21:18:02.150Z,69.49
2023-02-09T21:22:03.050Z,68.88
2023-02-09T21:26:05.284Z,68.93
2023-02-09T21:30:09.593Z,69.28
2023-02-09T21:34:10.837Z,69.04
2023-02-09T21:38:11.616Z,69.65
2023-02-09T21:42:28.904Z,69.61
2023-02-09T21:46:33.176Z,69.83
2023-02-09T21:50:34.527Z,69.51
2023-02-09T21:54:35.472Z,70.27
2023-02-09T21:58:36.200Z,70.27
2023-02-09T22:02:39.706Z,70.46
2023-02-09T22:06:41.749Z,70.50
2023-02-09T22:10:42.073Z,70.23
2023-02-09T22:14:42.622Z,70.79
2023-02-09T22:18:45.782Z,70.74
2023-02-09T22:22:46.700Z,70.50
2023-02-09T22:26:47.538Z,70.73
2023-02-09T22:30:48.165Z,70.61
2023-02-09T22:34:51.873Z,69.97
2023-02-09T22:38:52.659Z,69.42
2023-02-09T22:42:54.114Z,69.41
2023-02-09T22:46:54.401Z,70.29
2023-02-09T22:50:57.603Z,70.12
2023-02-09T22:54:59.202Z,70.45
2023-02-09T22:59:02.648Z,70.43
2023-02-09T23:03:03.149Z,71.17
2023-02-09T23:07:07.398Z,70.77
2023-02-09T23:11:11.011Z,71.06
2023-02-09T23:15:13.681Z,71.83
2023-02-09T23:19:18.182Z,71.24
2023-02-09T23:23:22.139Z,71.62
2023-02-09T23:27:22.790Z,72.11
2023-02-09T23:31:24.080Z,72.00
2023-02-09T23:35:24.869Z,72.20
2023-02-09T23:39:28.924Z,72.39
2023-02-09T23:43:29.330Z,72.07
2023-02-09T23:47:30.076Z,71.88
2023-02-09T23:51:33.841Z,71.85
2023-02-09T23:55:37.010Z,71.70
2023-02-09T23:59:37.683Z,72.58
